Time;durP1;ratioP1;P1;durP2;ratioP2;P2;SDS_P1;SDS_P2;PMS_P1;PMS_P2;Temp;Humidity;BMP_temperature;BMP_pressure;BME280_temperature;BME280_humidity;BME280_pressure;Samples;Min_cycle;Max_cycle;Signal;HPM_P1;HPM_P2
2023/05/13 00:01:00;;;;;;;;;;;20.10;60.30;;;;;;5071431;28;19960;-69
2023/05/13 00:03:26;;;;;;;;;;;20.00;60.10;;;;;;5073203;28;19920;-68
2023/05/13 00:05:51;;;;;;;;;;;20.10;60.20;;;;;;5073406;28;19927;-68
2023/05/13 00:08:18;;;;;;;;;;;20.00;60.10;;;;;;5055580;28;19935;-69
2023/05/13 00:10:44;;;;;;;;;;;20.00;60.10;;;;;;5055595;28;19921;-70
2023/05/13 00:13:09;;;;;;;;;;;20.00;60.10;;;;;;5055825;28;19951;-67
2023/05/13 00:15:35;;;;;;;;;;;20.00;60.10;;;;;;5072919;28;19952;-68
2023/05/13 00:18:01;;;;;;;;;;;20.00;60.00;;;;;;5053839;28;19960;-69
2023/05/13 00:20:26;;;;;;;;;;;19.90;60.00;;;;;;5069610;28;20079;-69
2023/05/13 00:22:52;;;;;;;;;;;20.00;60.00;;;;;;5055761;28;20174;-68
2023/05/13 00:25:17;;;;;;;;;;;20.00;60.00;;;;;;5071562;28;19920;-68
2023/05/13 00:27:43;;;;;;;;;;;20.00;60.00;;;;;;5055070;28;19943;-69
2023/05/13 00:30:09;;;;;;;;;;;19.90;60.00;;;;;;5073062;28;19920;-68
2023/05/13 00:32:34;;;;;;;;;;;19.90;60.00;;;;;;5055402;28;19924;-68
2023/05/13 00:35:00;;;;;;;;;;;19.90;60.00;;;;;;5072014;28;19943;-69
2023/05/13 00:37:26;;;;;;;;;;;20.00;60.00;;;;;;5055113;28;20011;-68
2023/05/13 00:39:51;;;;;;;;;;;19.90;59.90;;;;;;5072781;28;19924;-68
2023/05/13 00:42:16;;;;;;;;;;;19.90;60.00;;;;;;5072586;28;19931;-68
2023/05/13 00:44:42;;;;;;;;;;;19.90;60.00;;;;;;5072512;28;20085;-68
2023/05/13 00:47:10;;;;;;;;;;;19.80;60.00;;;;;;5071153;28;19977;-68
2023/05/13 00:49:35;;;;;;;;;;;19.90;60.00;;;;;;5055058;28;19928;-68
2023/05/13 00:52:01;;;;;;;;;;;19.80;60.00;;;;;;5070842;28;19920;-68
2023/05/13 00:54:27;;;;;;;;;;;19.80;60.00;;;;;;5070896;28;19925;-68
2023/05/13 00:56:55;;;;;;;;;;;19.80;60.00;;;;;;5054491;28;20047;-68
2023/05/13 00:59:23;;;;;;;;;;;19.80;60.00;;;;;;5072140;28;19974;-69
2023/05/13 01:12:40;;;;;;;;;;;19.70;59.90;;;;;;5099959;27;19916;-68
2023/05/13 01:15:07;;;;;;;;;;;19.80;59.90;;;;;;5095419;28;19977;-68
2023/05/13 01:17:36;;;;;;;;;;;19.70;59.90;;;;;;5097368;28;19921;-68
2023/05/13 01:20:03;;;;;;;;;;;19.70;59.90;;;;;;5096245;28;19921;-68
2023/05/13 01:22:29;;;;;;;;;;;19.70;60.00;;;;;;5095133;28;19923;-69
2023/05/13 01:24:55;;;;;;;;;;;19.70;59.90;;;;;;5093918;28;20381;-68
2023/05/13 01:27:20;;;;;;;;;;;19.70;59.90;;;;;;5093467;28;20035;-68
2023/05/13 01:29:46;;;;;;;;;;;19.70;59.90;;;;;;5094455;28;19942;-68
2023/05/13 01:32:12;;;;;;;;;;;19.70;60.00;;;;;;5094267;28;19924;-68
2023/05/13 01:34:38;;;;;;;;;;;19.60;59.90;;;;;;5094171;28;19966;-68
2023/05/13 01:37:04;;;;;;;;;;;19.70;60.00;;;;;;5094706;28;19927;-69
2023/05/13 01:39:30;;;;;;;;;;;19.60;59.90;;;;;;5096073;28;19924;-68
2023/05/13 01:41:56;;;;;;;;;;;19.60;59.90;;;;;;5095953;28;19921;-68
2023/05/13 01:44:22;;;;;;;;;;;19.60;59.90;;;;;;5122002;27;19927;-68
2023/05/13 01:46:49;;;;;;;;;;;19.60;59.90;;;;;;5109596;28;19988;-68
2023/05/13 01:49:15;;;;;;;;;;;19.60;59.90;;;;;;5109349;28;19920;-68
2023/05/13 01:51:40;;;;;;;;;;;19.60;59.90;;;;;;5108259;28;20299;-69
2023/05/13 01:54:06;;;;;;;;;;;19.60;59.90;;;;;;5108517;28;19927;-68
2023/05/13 01:56:31;;;;;;;;;;;19.60;59.90;;;;;;5108402;28;19926;-68
2023/05/13 01:58:57;;;;;;;;;;;19.60;59.90;;;;;;5109382;28;20329;-68
2023/05/13 02:01:23;;;;;;;;;;;19.60;59.90;;;;;;5109304;28;19920;-68
2023/05/13 02:03:48;;;;;;;;;;;19.50;59.90;;;;;;5108972;28;19924;-69
2023/05/13 02:06:14;;;;;;;;;;;19.50;59.90;;;;;;5108016;28;19920;-68
2023/05/13 02:08:39;;;;;;;;;;;19.50;59.90;;;;;;5108154;28;19924;-68
2023/05/13 02:11:05;;;;;;;;;;;19.50;59.90;;;;;;5107684;28;19955;-69
2023/05/13 02:13:30;;;;;;;;;;;19.50;59.90;;;;;;5109211;28;19975;-68
2023/05/13 02:15:56;;;;;;;;;;;19.50;59.90;;;;;;5107717;28;19919;-69
2023/05/13 02:18:22;;;;;;;;;;;19.40;59.90;;;;;;5108071;28;19923;-68
2023/05/13 02:20:47;;;;;;;;;;;19.50;59.90;;;;;;5108666;28;19920;-69
2023/05/13 02:23:13;;;;;;;;;;;19.40;59.90;;;;;;5099420;28;19920;-68
2023/05/13 02:25:40;;;;;;;;;;;19.40;59.90;;;;;;5095176;28;19967;-68
2023/05/13 02:28:05;;;;;;;;;;;19.40;59.90;;;;;;5095212;28;20337;-68
2023/05/13 02:30:31;;;;;;;;;;;19.40;59.90;;;;;;5093768;28;19928;-68
2023/05/13 02:32:56;;;;;;;;;;;19.40;59.90;;;;;;5093851;28;19927;-68
2023/05/13 02:35:24;;;;;;;;;;;19.40;59.90;;;;;;5093731;28;19927;-68
2023/05/13 02:37:49;;;;;;;;;;;19.40;59.90;;;;;;5094314;28;20066;-68
2023/05/13 02:40:15;;;;;;;;;;;19.30;59.80;;;;;;5093983;28;19965;-69
2023/05/13 02:42:42;;;;;;;;;;;19.30;59.90;;;;;;5093674;28;19920;-68
2023/05/13 02:45:08;;;;;;;;;;;19.30;59.90;;;;;;5094957;28;19920;-68
2023/05/13 02:47:33;;;;;;;;;;;19.30;59.90;;;;;;5093874;28;19920;-68
2023/05/13 02:49:59;;;;;;;;;;;19.30;59.90;;;;;;5093478;28;19920;-68
2023/05/13 02:52:28;;;;;;;;;;;19.30;59.90;;;;;;5094652;28;19977;-68
2023/05/13 02:54:53;;;;;;;;;;;19.30;59.90;;;;;;5093533;28;19965;-65
2023/05/13 02:57:19;;;;;;;;;;;19.30;59.90;;;;;;5093701;28;19920;-68
2023/05/13 02:59:44;;;;;;;;;;;19.30;59.90;;;;;;5093661;28;19920;-68
2023/05/13 03:02:10;;;;;;;;;;;19.20;59.90;;;;;;5094653;28;20325;-68
2023/05/13 03:04:35;;;;;;;;;;;19.20;59.80;;;;;;5093566;28;19920;-68
2023/05/13 03:07:00;;;;;;;;;;;19.30;59.90;;;;;;5094730;28;19938;-68
2023/05/13 03:09:26;;;;;;;;;;;19.20;59.90;;;;;;5093212;28;19945;-68
2023/05/13 03:11:52;;;;;;;;;;;19.20;59.90;;;;;;5092893;28;19924;-69
2023/05/13 03:14:17;;;;;;;;;;;19.20;59.80;;;;;;5094397;28;20077;-68
2023/05/13 03:16:43;;;;;;;;;;;19.20;59.80;;;;;;5094313;28;19920;-68
2023/05/13 03:19:09;;;;;;;;;;;19.20;59.80;;;;;;5093554;28;19920;-68
2023/05/13 03:21:35;;;;;;;;;;;19.20;59.80;;;;;;5092885;28;19927;-68
2023/05/13 03:24:00;;;;;;;;;;;19.20;59.80;;;;;;5092941;28;19926;-68
2023/05/13 03:26:26;;;;;;;;;;;19.20;59.90;;;;;;5094331;28;19920;-68
2023/05/13 03:28:51;;;;;;;;;;;19.20;59.90;;;;;;5094195;28;20367;-68
2023/05/13 03:31:17;;;;;;;;;;;19.20;59.90;;;;;;5093985;28;20426;-68
2023/05/13 03:33:42;;;;;;;;;;;19.20;59.80;;;;;;5092404;28;19928;-68
2023/05/13 03:36:08;;;;;;;;;;;19.10;59.80;;;;;;5093555;28;20325;-68
2023/05/13 03:38:33;;;;;;;;;;;19.10;59.80;;;;;;5092894;28;19927;-68
2023/05/13 03:40:59;;;;;;;;;;;19.20;59.80;;;;;;5092974;28;19965;-68
2023/05/13 03:43:24;;;;;;;;;;;19.10;59.80;;;;;;5092477;28;20180;-68
2023/05/13 03:45:50;;;;;;;;;;;19.10;59.70;;;;;;5092504;28;19976;-68
2023/05/13 03:48:15;;;;;;;;;;;19.10;60.40;;;;;;5092738;28;19921;-68
2023/05/13 03:50:41;;;;;;;;;;;19.10;59.70;;;;;;5092304;28;19924;-68
2023/05/13 03:53:07;;;;;;;;;;;19.10;59.70;;;;;;5092567;28;19935;-68
2023/05/13 03:55:32;;;;;;;;;;;19.10;59.70;;;;;;5093546;28;19961;-68
2023/05/13 03:57:57;;;;;;;;;;;19.10;59.70;;;;;;5092515;28;19977;-66
2023/05/13 04:00:23;;;;;;;;;;;19.10;59.70;;;;;;5092526;28;19924;-66
2023/05/13 04:02:49;;;;;;;;;;;19.10;59.70;;;;;;5093399;28;19926;-68
2023/05/13 04:05:14;;;;;;;;;;;19.10;59.70;;;;;;5092380;28;19993;-68
2023/05/13 04:07:40;;;;;;;;;;;19.10;59.70;;;;;;5092393;28;19930;-68
2023/05/13 04:10:06;;;;;;;;;;;19.10;59.60;;;;;;5093513;28;19931;-68
2023/05/13 04:12:32;;;;;;;;;;;19.10;59.60;;;;;;5092972;28;19924;-68
2023/05/13 04:14:58;;;;;;;;;;;19.10;59.60;;;;;;5091965;28;19966;-68
2023/05/13 04:17:23;;;;;;;;;;;19.00;59.60;;;;;;5092257;28;20280;-68
2023/05/13 04:19:52;;;;;;;;;;;19.00;59.60;;;;;;5092084;28;20368;-69
2023/05/13 04:22:18;;;;;;;;;;;19.00;59.60;;;;;;5093152;28;20260;-68
2023/05/13 04:24:43;;;;;;;;;;;19.00;59.60;;;;;;5091679;28;19982;-68
2023/05/13 04:27:09;;;;;;;;;;;19.00;59.70;;;;;;5091790;28;19947;-68
2023/05/13 04:29:35;;;;;;;;;;;19.00;59.80;;;;;;5091998;28;19927;-68
2023/05/13 04:32:00;;;;;;;;;;;18.90;59.80;;;;;;5091581;28;19976;-68
2023/05/13 04:34:26;;;;;;;;;;;18.90;59.80;;;;;;5093000;28;19928;-69
2023/05/13 04:36:51;;;;;;;;;;;18.90;59.80;;;;;;5091525;28;19927;-68
2023/05/13 04:39:16;;;;;;;;;;;18.90;59.90;;;;;;5091793;28;20007;-68
2023/05/13 04:41:42;;;;;;;;;;;18.90;59.90;;;;;;5091977;28;19927;-69
2023/05/13 04:44:07;;;;;;;;;;;18.90;60.00;;;;;;5091778;28;20473;-68
2023/05/13 04:46:33;;;;;;;;;;;18.90;60.00;;;;;;5091185;28;20342;-68
2023/05/13 04:48:58;;;;;;;;;;;18.80;60.00;;;;;;5091753;28;19920;-65
2023/05/13 04:51:24;;;;;;;;;;;18.80;60.00;;;;;;5091214;28;20018;-68
2023/05/13 04:53:49;;;;;;;;;;;18.80;60.00;;;;;;5091599;28;19931;-69
2023/05/13 04:56:15;;;;;;;;;;;18.80;60.10;;;;;;5091235;28;19973;-68
2023/05/13 04:58:41;;;;;;;;;;;18.80;60.90;;;;;;5091554;28;19934;-69
2023/05/13 05:01:06;;;;;;;;;;;18.80;60.90;;;;;;5092788;28;20023;-68
2023/05/13 05:03:32;;;;;;;;;;;18.80;60.10;;;;;;5092472;28;20350;-68
2023/05/13 05:05:58;;;;;;;;;;;18.80;60.20;;;;;;5092413;28;19965;-69
2023/05/13 05:08:23;;;;;;;;;;;18.80;60.10;;;;;;5091138;28;19946;-68
2023/05/13 05:10:49;;;;;;;;;;;18.80;60.10;;;;;;5092021;28;19930;-68
2023/05/13 05:13:14;;;;;;;;;;;18.80;60.20;;;;;;5091474;28;19928;-68
2023/05/13 05:15:40;;;;;;;;;;;18.80;60.20;;;;;;5091139;28;20353;-68
2023/05/13 05:18:06;;;;;;;;;;;18.80;60.20;;;;;;5092532;28;20396;-68
2023/05/13 05:20:31;;;;;;;;;;;18.80;60.20;;;;;;5092348;28;20291;-68
2023/05/13 05:22:58;;;;;;;;;;;18.70;60.10;;;;;;5091129;28;20026;-68
2023/05/13 05:25:24;;;;;;;;;;;18.70;60.10;;;;;;5092231;28;19924;-67
2023/05/13 05:27:49;;;;;;;;;;;18.80;60.20;;;;;;5091216;28;19927;-68
2023/05/13 05:30:15;;;;;;;;;;;18.70;60.10;;;;;;5092324;28;20021;-68
2023/05/13 05:32:40;;;;;;;;;;;18.80;60.20;;;;;;5090852;28;19931;-68
2023/05/13 05:35:06;;;;;;;;;;;18.70;60.20;;;;;;5092288;28;19919;-68
2023/05/13 05:37:32;;;;;;;;;;;18.70;60.10;;;;;;5092545;28;19972;-68
2023/05/13 05:39:57;;;;;;;;;;;18.80;60.20;;;;;;5092174;28;19920;-68
2023/05/13 05:42:23;;;;;;;;;;;18.70;60.10;;;;;;5092017;28;20038;-68
2023/05/13 05:44:48;;;;;;;;;;;18.70;60.10;;;;;;5092119;28;19950;-68
2023/05/13 05:47:14;;;;;;;;;;;18.80;60.20;;;;;;5092187;28;19985;-68
2023/05/13 05:49:39;;;;;;;;;;;18.70;60.10;;;;;;5092135;28;20074;-68
2023/05/13 05:52:05;;;;;;;;;;;18.70;60.10;;;;;;5091967;28;19928;-68
2023/05/13 05:54:30;;;;;;;;;;;18.70;60.00;;;;;;5092091;28;19920;-68
2023/05/13 05:56:56;;;;;;;;;;;18.70;60.10;;;;;;5090915;28;20406;-69
2023/05/13 05:59:21;;;;;;;;;;;18.70;60.10;;;;;;5094611;28;19964;-68
2023/05/13 06:01:47;;;;;;;;;;;18.70;60.10;;;;;;5094849;28;20006;-68
2023/05/13 06:04:12;;;;;;;;;;;18.70;60.00;;;;;;5095653;28;19927;-68
2023/05/13 06:06:39;;;;;;;;;;;18.70;60.00;;;;;;5096135;28;19920;-68
2023/05/13 06:09:04;;;;;;;;;;;18.70;60.10;;;;;;5094314;28;20375;-68
2023/05/13 06:11:30;;;;;;;;;;;18.70;60.10;;;;;;5095267;28;19935;-68
2023/05/13 06:13:56;;;;;;;;;;;18.70;60.10;;;;;;5094470;28;20509;-68
2023/05/13 06:16:22;;;;;;;;;;;18.70;60.10;;;;;;5094226;28;19920;-68
2023/05/13 06:18:47;;;;;;;;;;;18.70;60.10;;;;;;5094243;28;20053;-68
2023/05/13 06:21:13;;;;;;;;;;;18.70;60.10;;;;;;5095448;28;19924;-68
2023/05/13 06:23:39;;;;;;;;;;;18.70;60.10;;;;;;5094117;28;19946;-68
2023/05/13 06:26:04;;;;;;;;;;;18.70;60.10;;;;;;5095338;28;19920;-68
2023/05/13 06:28:30;;;;;;;;;;;18.70;60.10;;;;;;5094255;28;20395;-68
2023/05/13 06:30:56;;;;;;;;;;;18.70;60.10;;;;;;5095454;28;20031;-68
2023/05/13 06:33:21;;;;;;;;;;;18.70;60.80;;;;;;5095356;28;19920;-68
2023/05/13 06:35:48;;;;;;;;;;;18.70;60.00;;;;;;5093426;28;19926;-69
2023/05/13 06:38:16;;;;;;;;;;;18.60;60.00;;;;;;5094970;28;20337;-68
2023/05/13 06:40:42;;;;;;;;;;;18.70;60.00;;;;;;5093745;28;19965;-68
2023/05/13 06:43:08;;;;;;;;;;;18.70;60.10;;;;;;5094000;28;19920;-69
2023/05/13 06:45:34;;;;;;;;;;;18.80;60.10;;;;;;5094947;28;19943;-68
2023/05/13 06:47:59;;;;;;;;;;;18.70;60.10;;;;;;5095140;28;20280;-68
2023/05/13 06:50:25;;;;;;;;;;;18.70;60.10;;;;;;5095000;28;20363;-68
2023/05/13 06:52:50;;;;;;;;;;;18.80;60.10;;;;;;5093873;28;19960;-68
2023/05/13 06:55:17;;;;;;;;;;;18.70;60.10;;;;;;5093518;28;20328;-66
2023/05/13 06:57:45;;;;;;;;;;;18.70;60.00;;;;;;5093671;28;20010;-67
2023/05/13 07:00:11;;;;;;;;;;;18.70;60.00;;;;;;5094688;28;19923;-67
2023/05/13 07:02:37;;;;;;;;;;;18.70;60.10;;;;;;5094600;28;20261;-67
2023/05/13 07:05:02;;;;;;;;;;;18.70;60.00;;;;;;5094891;28;19926;-68
2023/05/13 07:07:28;;;;;;;;;;;18.80;60.10;;;;;;5093655;28;19920;-68
2023/05/13 07:09:53;;;;;;;;;;;18.70;60.00;;;;;;5093151;28;19923;-68
2023/05/13 07:12:19;;;;;;;;;;;18.80;60.10;;;;;;5094286;28;20116;-68
2023/05/13 07:14:44;;;;;;;;;;;18.70;60.00;;;;;;5093033;28;19927;-68
2023/05/13 07:17:10;;;;;;;;;;;18.80;60.10;;;;;;5093441;28;19930;-68
2023/05/13 07:19:35;;;;;;;;;;;18.80;60.10;;;;;;5093193;28;20003;-68
2023/05/13 07:22:01;;;;;;;;;;;18.80;60.10;;;;;;5093289;28;20406;-68
2023/05/13 07:24:27;;;;;;;;;;;18.80;60.10;;;;;;5093041;28;19924;-68
2023/05/13 07:26:52;;;;;;;;;;;18.80;60.10;;;;;;5094113;28;19920;-69
2023/05/13 07:29:17;;;;;;;;;;;18.80;60.10;;;;;;5093185;28;19920;-68
2023/05/13 07:31:43;;;;;;;;;;;18.80;60.10;;;;;;5092645;28;20379;-68
2023/05/13 07:34:09;;;;;;;;;;;18.80;60.10;;;;;;5093372;28;20015;-69
2023/05/13 07:36:35;;;;;;;;;;;18.80;60.10;;;;;;5092261;28;20367;-67
2023/05/13 07:39:00;;;;;;;;;;;18.80;60.00;;;;;;5088727;28;19924;-67
2023/05/13 07:41:26;;;;;;;;;;;18.80;60.00;;;;;;5090960;28;20015;-67
2023/05/13 07:43:52;;;;;;;;;;;18.90;60.00;;;;;;5091397;28;20375;-67
2023/05/13 07:46:17;;;;;;;;;;;18.90;59.80;;;;;;5088980;28;19920;-67
2023/05/13 07:48:43;;;;;;;;;;;19.00;59.80;;;;;;5092264;28;19924;-68
2023/05/13 07:51:08;;;;;;;;;;;19.00;59.70;;;;;;5091441;28;19924;-68
2023/05/13 07:53:35;;;;;;;;;;;19.10;59.70;;;;;;5091600;28;19920;-68
2023/05/13 07:56:01;;;;;;;;;;;19.10;59.70;;;;;;5091819;28;19924;-67
2023/05/13 07:58:26;;;;;;;;;;;19.10;59.60;;;;;;5092237;28;19927;-67
2023/05/13 08:00:52;;;;;;;;;;;19.20;59.70;;;;;;5090989;28;19931;-67
2023/05/13 08:03:17;;;;;;;;;;;19.20;59.70;;;;;;5091977;28;19920;-67
2023/05/13 08:05:43;;;;;;;;;;;19.20;59.80;;;;;;5091526;28;19920;-67
2023/05/13 08:08:08;;;;;;;;;;;19.20;59.80;;;;;;5091693;28;19934;-67
2023/05/13 08:10:34;;;;;;;;;;;19.20;59.80;;;;;;5090994;28;19924;-64
2023/05/13 08:12:59;;;;;;;;;;;19.30;59.90;;;;;;5090247;28;19928;-67
2023/05/13 08:15:26;;;;;;;;;;;19.20;59.90;;;;;;5090473;28;20367;-68
2023/05/13 08:17:52;;;;;;;;;;;19.30;59.90;;;;;;5091572;28;19977;-67
2023/05/13 08:20:18;;;;;;;;;;;19.30;59.80;;;;;;5090833;28;20327;-66
2023/05/13 08:22:43;;;;;;;;;;;19.40;59.80;;;;;;5091255;28;19920;-68
2023/05/13 08:25:10;;;;;;;;;;;19.40;59.80;;;;;;5092012;28;20337;-68
2023/05/13 08:27:35;;;;;;;;;;;19.40;59.80;;;;;;5090021;28;19926;-67
2023/05/13 08:30:01;;;;;;;;;;;19.40;59.90;;;;;;5089998;28;20002;-66
2023/05/13 08:32:26;;;;;;;;;;;19.40;59.90;;;;;;5090604;28;19968;-67
2023/05/13 08:34:52;;;;;;;;;;;19.40;59.90;;;;;;5091131;28;19939;-67
2023/05/13 08:37:18;;;;;;;;;;;19.50;59.90;;;;;;5090677;28;19927;-66
2023/05/13 08:39:43;;;;;;;;;;;19.50;59.90;;;;;;5090836;28;19920;-66
2023/05/13 08:42:10;;;;;;;;;;;19.50;59.90;;;;;;5090846;28;19927;-66
2023/05/13 08:44:38;;;;;;;;;;;19.50;59.80;;;;;;5090842;28;20026;-65
2023/05/13 08:47:10;;;;;;;;;;;19.50;59.80;;;;;;5090939;28;20265;-66
2023/05/13 08:49:36;;;;;;;;;;;19.60;59.80;;;;;;5090657;28;20007;-65
2023/05/13 08:52:02;;;;;;;;;;;19.60;59.80;;;;;;5091720;28;19971;-66
2023/05/13 08:54:28;;;;;;;;;;;19.60;59.80;;;;;;5091924;28;19989;-66
2023/05/13 08:56:53;;;;;;;;;;;19.60;59.80;;;;;;5088950;28;19935;-67
2023/05/13 08:59:19;;;;;;;;;;;19.70;59.80;;;;;;5090015;28;19920;-67
2023/05/13 09:01:44;;;;;;;;;;;19.80;59.50;;;;;;5090799;28;20473;-66
2023/05/13 09:04:10;;;;;;;;;;;19.80;59.30;;;;;;5089895;28;20018;-67
2023/05/13 09:06:35;;;;;;;;;;;19.80;59.20;;;;;;5089898;28;20010;-67
2023/05/13 09:09:01;;;;;;;;;;;19.90;59.10;;;;;;5090360;28;19973;-67
2023/05/13 09:11:27;;;;;;;;;;;19.90;58.90;;;;;;5089834;28;20007;-67
2023/05/13 09:14:01;;;;;;;;;;;19.90;58.80;;;;;;5090601;28;19920;-63
2023/05/13 09:16:27;;;;;;;;;;;20.00;58.70;;;;;;5090275;28;19964;-67
2023/05/13 09:18:55;;;;;;;;;;;20.00;58.60;;;;;;5089732;28;19974;-68
2023/05/13 09:21:22;;;;;;;;;;;20.10;58.50;;;;;;5089702;28;19931;-67
2023/05/13 09:23:47;;;;;;;;;;;20.10;58.50;;;;;;5090616;28;19920;-67
2023/05/13 09:26:29;;;;;;;;;;;20.10;58.40;;;;;;5088347;28;20387;-67
2023/05/13 09:29:15;;;;;;;;;;;20.10;58.50;;;;;;5085270;28;20414;-67
2023/05/13 09:31:40;;;;;;;;;;;20.10;58.30;;;;;;5089809;28;19936;-68
2023/05/13 09:34:06;;;;;;;;;;;20.20;58.30;;;;;;5094287;28;19926;-68
2023/05/13 09:36:32;;;;;;;;;;;20.20;58.30;;;;;;5095722;28;20007;-68
2023/05/13 09:38:58;;;;;;;;;;;20.20;58.30;;;;;;5094961;28;19920;-67
2023/05/13 09:41:29;;;;;;;;;;;20.20;58.30;;;;;;5094002;28;19949;-67
2023/05/13 09:43:54;;;;;;;;;;;20.20;58.30;;;;;;5094709;28;19973;-67
2023/05/13 09:46:20;;;;;;;;;;;20.20;58.30;;;;;;5095023;28;20298;-67
2023/05/13 09:48:45;;;;;;;;;;;20.30;58.30;;;;;;5095122;28;19920;-68
2023/05/13 09:51:11;;;;;;;;;;;20.30;58.30;;;;;;5093565;28;19924;-67
2023/05/13 09:53:36;;;;;;;;;;;20.30;58.30;;;;;;5095413;28;19920;-67
2023/05/13 09:56:02;;;;;;;;;;;20.30;58.30;;;;;;5094072;28;19920;-66
2023/05/13 09:58:29;;;;;;;;;;;20.30;58.30;;;;;;5093900;28;20022;-67
2023/05/13 10:00:55;;;;;;;;;;;20.30;58.30;;;;;;5093695;28;19926;-67
2023/05/13 10:03:21;;;;;;;;;;;20.40;58.30;;;;;;5094479;28;20449;-68
2023/05/13 10:05:47;;;;;;;;;;;20.40;58.40;;;;;;5094377;28;19923;-67
2023/05/13 10:08:13;;;;;;;;;;;20.40;58.30;;;;;;5091966;28;19920;-67
2023/05/13 10:10:41;;;;;;;;;;;20.40;58.30;;;;;;5089897;28;19924;-66
2023/05/13 10:13:09;;;;;;;;;;;20.40;58.40;;;;;;5094790;28;20438;-67
2023/05/13 10:15:35;;;;;;;;;;;20.40;58.20;;;;;;5095312;28;19920;-67
2023/05/13 10:18:01;;;;;;;;;;;20.40;58.20;;;;;;5094175;28;19927;-67
2023/05/13 10:20:26;;;;;;;;;;;20.50;58.20;;;;;;5094262;28;19960;-67
2023/05/13 10:22:52;;;;;;;;;;;20.50;58.10;;;;;;5094157;28;19942;-67
2023/05/13 10:25:17;;;;;;;;;;;20.50;58.10;;;;;;5094236;28;19950;-67
2023/05/13 10:27:44;;;;;;;;;;;20.50;58.10;;;;;;5094071;28;19924;-67
2023/05/13 10:30:09;;;;;;;;;;;20.50;58.10;;;;;;5093438;28;19927;-67
2023/05/13 10:32:36;;;;;;;;;;;20.50;58.00;;;;;;5092873;28;20379;-67
2023/05/13 10:35:18;;;;;;;;;;;20.50;57.90;;;;;;5093782;28;19924;-63
2023/05/13 10:38:04;;;;;;;;;;;20.50;57.90;;;;;;5091563;28;19920;-67
2023/05/13 10:40:49;;;;;;;;;;;20.50;57.90;;;;;;5106426;28;19920;-67
2023/05/13 10:43:17;;;;;;;;;;;20.60;58.00;;;;;;5105880;28;19921;-67
2023/05/13 10:45:43;;;;;;;;;;;20.50;57.80;;;;;;5074048;28;19977;-67
2023/05/13 10:48:10;;;;;;;;;;;20.60;57.70;;;;;;5073727;28;19920;-67
2023/05/13 10:50:37;;;;;;;;;;;20.60;57.80;;;;;;5073522;28;19920;-67
2023/05/13 10:53:06;;;;;;;;;;;20.60;57.80;;;;;;5092616;28;19931;-67
2023/05/13 10:55:38;;;;;;;;;;;20.60;57.80;;;;;;5094305;28;19920;-67
2023/05/13 11:00:44;;;;;;;;;;;20.60;58.70;;;;;;5088894;28;19912;-66
2023/05/13 11:03:12;;;;;;;;;;;20.60;57.90;;;;;;5087065;28;20269;-66
2023/05/13 11:05:40;;;;;;;;;;;20.60;57.90;;;;;;5088399;28;19955;-67
2023/05/13 11:08:05;;;;;;;;;;;20.60;58.00;;;;;;5086901;28;20279;-68
2023/05/13 11:10:31;;;;;;;;;;;20.60;58.10;;;;;;5087823;28;19920;-67
2023/05/13 11:13:16;;;;;;;;;;;20.60;58.20;;;;;;5086844;28;20654;-67
2023/05/13 11:15:42;;;;;;;;;;;20.60;58.10;;;;;;5088234;28;20201;-67
2023/05/13 11:18:08;;;;;;;;;;;20.60;58.10;;;;;;5087979;28;19971;-67
2023/05/13 11:20:36;;;;;;;;;;;20.60;58.10;;;;;;5087746;28;20358;-67
2023/05/13 11:23:01;;;;;;;;;;;20.50;58.00;;;;;;5087953;28;20318;-68
2023/05/13 11:25:27;;;;;;;;;;;20.50;58.00;;;;;;5089465;28;19920;-67
2023/05/13 11:27:52;;;;;;;;;;;20.50;58.10;;;;;;5088560;28;19962;-67
2023/05/13 11:30:22;;;;;;;;;;;20.40;58.10;;;;;;5088080;28;19921;-65
2023/05/13 11:35:31;;;;;;;;;;;20.40;58.30;;;;;;5110232;27;19912;-67
2023/05/13 11:37:58;;;;;;;;;;;20.30;58.40;;;;;;5108968;28;19920;-67
2023/05/13 11:40:24;;;;;;;;;;;20.30;58.50;;;;;;5109120;28;19934;-67
2023/05/13 11:42:50;;;;;;;;;;;20.30;58.50;;;;;;5108872;28;19920;-67
2023/05/13 11:45:16;;;;;;;;;;;20.20;58.50;;;;;;5109071;28;19920;-68
2023/05/13 11:47:42;;;;;;;;;;;20.20;58.60;;;;;;5110043;28;20287;-67
2023/05/13 11:50:25;;;;;;;;;;;20.20;58.60;;;;;;5108675;28;19920;-66
2023/05/13 11:52:51;;;;;;;;;;;20.20;58.70;;;;;;5110110;28;19990;-67
2023/05/13 11:58:04;;;;;;;;;;;20.10;58.70;;;;;;5110289;27;19919;-67
2023/05/13 12:00:30;;;;;;;;;;;20.10;58.70;;;;;;5108858;28;19920;-67
2023/05/13 12:02:57;;;;;;;;;;;20.10;58.80;;;;;;5110338;28;19924;-67
2023/05/13 12:05:23;;;;;;;;;;;20.10;58.80;;;;;;5108798;28;19920;-67
2023/05/13 12:07:48;;;;;;;;;;;20.10;58.90;;;;;;5110047;28;20292;-67
2023/05/13 12:10:14;;;;;;;;;;;20.10;58.90;;;;;;5109084;28;20363;-67
2023/05/13 12:12:42;;;;;;;;;;;20.10;58.90;;;;;;5108790;28;19966;-67
2023/05/13 12:15:09;;;;;;;;;;;20.10;58.90;;;;;;5108875;28;20379;-67
2023/05/13 12:17:35;;;;;;;;;;;20.00;58.90;;;;;;5108640;28;19924;-67
2023/05/13 12:22:59;;;;;;;;;;;20.00;58.90;;;;;;5089994;28;19912;-67
2023/05/13 12:25:35;;;;;;;;;;;20.00;58.90;;;;;;5088449;28;19920;-66
2023/05/13 12:28:20;;;;;;;;;;;20.00;58.80;;;;;;5088839;28;19921;-67
2023/05/13 12:30:54;;;;;;;;;;;20.00;58.80;;;;;;5088335;28;20420;-67
2023/05/13 12:33:22;;;;;;;;;;;20.00;58.80;;;;;;5088760;28;19928;-67
2023/05/13 12:35:49;;;;;;;;;;;20.00;58.90;;;;;;5089619;28;20399;-67
2023/05/13 12:38:16;;;;;;;;;;;20.00;58.90;;;;;;5088402;28;19962;-67
2023/05/13 12:40:45;;;;;;;;;;;20.00;58.90;;;;;;5088455;28;19946;-67
2023/05/13 12:43:12;;;;;;;;;;;20.10;59.00;;;;;;5088640;28;19921;-67
2023/05/13 12:45:39;;;;;;;;;;;20.00;59.00;;;;;;5088261;28;19956;-67
2023/05/13 12:48:04;;;;;;;;;;;20.00;58.90;;;;;;5089504;28;19974;-67
2023/05/13 12:50:30;;;;;;;;;;;20.00;58.90;;;;;;5088076;28;19924;-68
2023/05/13 12:52:58;;;;;;;;;;;20.00;59.00;;;;;;5089350;28;19921;-67
2023/05/13 12:55:26;;;;;;;;;;;20.00;59.00;;;;;;5087373;28;19924;-67
2023/05/13 12:57:56;;;;;;;;;;;20.00;59.00;;;;;;5087956;28;19966;-64
2023/05/13 13:00:22;;;;;;;;;;;20.00;59.00;;;;;;5087960;28;20371;-67
2023/05/13 13:02:47;;;;;;;;;;;20.00;59.00;;;;;;5089027;28;19932;-67
2023/05/13 13:05:13;;;;;;;;;;;20.00;59.00;;;;;;5088065;28;20368;-67
2023/05/13 13:07:40;;;;;;;;;;;20.00;58.90;;;;;;5088946;28;19924;-67
2023/05/13 13:10:07;;;;;;;;;;;20.00;58.90;;;;;;5088057;28;20387;-67
2023/05/13 13:12:32;;;;;;;;;;;20.00;58.90;;;;;;5088744;28;20367;-67
2023/05/13 13:14:57;;;;;;;;;;;20.00;58.90;;;;;;5088924;28;19926;-66
2023/05/13 13:17:23;;;;;;;;;;;20.00;58.90;;;;;;5087850;28;19921;-67
2023/05/13 13:19:49;;;;;;;;;;;20.00;58.90;;;;;;5088870;28;20014;-67
2023/05/13 13:22:14;;;;;;;;;;;20.00;58.90;;;;;;5087078;28;19935;-67
2023/05/13 13:24:40;;;;;;;;;;;20.00;58.90;;;;;;5087441;28;19970;-67
2023/05/13 13:27:06;;;;;;;;;;;20.00;58.90;;;;;;5087661;28;19920;-67
2023/05/13 13:29:31;;;;;;;;;;;20.00;58.90;;;;;;5087747;28;19970;-67
2023/05/13 13:31:57;;;;;;;;;;;20.00;58.90;;;;;;5087402;28;19920;-67
2023/05/13 13:34:22;;;;;;;;;;;20.00;58.90;;;;;;5074512;28;19920;-67
2023/05/13 13:36:48;;;;;;;;;;;20.00;58.80;;;;;;5074056;28;19920;-67
2023/05/13 13:39:13;;;;;;;;;;;20.00;58.80;;;;;;5073568;28;19924;-68
2023/05/13 13:41:39;;;;;;;;;;;20.00;58.80;;;;;;5073839;28;19935;-67
2023/05/13 13:44:04;;;;;;;;;;;20.00;58.80;;;;;;5073828;28;19986;-67
2023/05/13 13:46:30;;;;;;;;;;;20.00;58.70;;;;;;5073582;28;20398;-67
2023/05/13 13:48:55;;;;;;;;;;;20.00;58.80;;;;;;5073780;28;20366;-67
2023/05/13 13:51:21;;;;;;;;;;;20.00;58.80;;;;;;5073406;28;20445;-66
2023/05/13 13:53:48;;;;;;;;;;;20.10;58.80;;;;;;5074584;28;19927;-67
2023/05/13 13:56:13;;;;;;;;;;;20.00;58.80;;;;;;5073397;28;19920;-67
2023/05/13 13:58:39;;;;;;;;;;;20.10;58.80;;;;;;5073626;28;19931;-67
2023/05/13 14:01:05;;;;;;;;;;;20.00;58.70;;;;;;5073315;28;19925;-67
2023/05/13 14:03:30;;;;;;;;;;;20.10;58.80;;;;;;5074485;28;19953;-68
2023/05/13 14:05:56;;;;;;;;;;;20.10;58.80;;;;;;5073350;28;19924;-67
2023/05/13 14:08:21;;;;;;;;;;;20.10;58.80;;;;;;5073379;28;20035;-68
2023/05/13 14:10:47;;;;;;;;;;;20.10;58.70;;;;;;5073193;28;19921;-67
2023/05/13 14:13:12;;;;;;;;;;;20.10;58.70;;;;;;5074540;28;20287;-68
2023/05/13 14:15:38;;;;;;;;;;;20.10;58.70;;;;;;5074414;28;19926;-67
2023/05/13 14:18:06;;;;;;;;;;;20.10;58.50;;;;;;5073080;28;19924;-67
2023/05/13 14:20:32;;;;;;;;;;;20.10;58.50;;;;;;5073339;28;19947;-67
2023/05/13 14:22:58;;;;;;;;;;;20.10;58.60;;;;;;5094332;28;19921;-65
2023/05/13 14:25:24;;;;;;;;;;;20.10;58.50;;;;;;5076124;28;19920;-67
2023/05/13 14:27:49;;;;;;;;;;;20.10;58.50;;;;;;5094523;28;20299;-67
2023/05/13 14:30:15;;;;;;;;;;;20.10;58.50;;;;;;5094202;28;19943;-67
2023/05/13 14:32:43;;;;;;;;;;;20.10;58.50;;;;;;5076056;28;19920;-67